Time;durP1;ratioP1;P1;durP2;ratioP2;P2;SDS_P1;SDS_P2;PMS_P1;PMS_P2;Temp;Humidity;BMP_temperature;BMP_pressure;BME280_temperature;BME280_humidity;BME280_pressure;Samples;Min_cycle;Max_cycle;Signal;HPM_P1;HPM_P2
2023/03/23 00:02:43;;;;;;;29.77;19.67;;;;;;;10.71;100.00;99383.84;5085904;28;20222;-56
2023/03/23 00:05:36;;;;;;;32.83;20.10;;;;;;;10.71;100.00;99383.84;5089099;28;20280;-55
2023/03/23 00:08:32;;;;;;;31.00;19.33;;;;;;;10.80;100.00;99386.16;5086143;28;20242;-56
2023/03/23 00:11:36;;;;;;;34.23;20.13;;;;;;;10.79;100.00;99384.44;5087063;28;20199;-56
2023/03/23 00:20:41;;;;;;;29.87;19.47;;;;;;;10.68;100.00;99384.78;5088900;28;20227;-56
2023/03/23 00:33:23;;;;;;;32.43;20.30;;;;;;;10.54;100.00;99385.19;5111603;28;20194;-56
2023/03/23 00:36:20;;;;;;;29.53;20.00;;;;;;;10.60;100.00;99373.81;5113341;28;20194;-55
2023/03/23 00:39:11;;;;;;;34.23;21.20;;;;;;;10.57;100.00;99384.28;5113398;28;20190;-55
2023/03/23 00:42:14;;;;;;;;;;;;;;;;;;;;;
2023/03/23 00:45:36;;;;;;;;;;;;;;;;;;;;;
2023/03/23 00:48:34;;;;;;;;;;;;;;;;;;;;;
2023/03/23 00:51:11;;;;;;;35.20;22.10;;;;;;;10.35;100.00;99370.25;5103004;28;20674;-54
2023/03/23 00:54:09;;;;;;;34.20;22.33;;;;;;;10.43;100.00;99365.66;5113260;28;20205;-52
2023/03/23 00:56:59;;;;;;;34.37;21.73;;;;;;;10.49;100.00;99360.31;5113371;28;20194;-53
2023/03/23 01:00:14;;;;;;;35.97;22.47;;;;;;;10.52;100.00;99367.97;5111708;28;20226;-56
2023/03/23 01:03:18;;;;;;;34.43;21.13;;;;;;;10.49;100.00;99361.16;5112074;28;20238;-52
2023/03/23 01:06:27;;;;;;;34.57;23.63;;;;;;;10.42;100.00;99354.44;5113235;28;20558;-52
2023/03/23 01:09:20;;;;;;;38.00;23.60;;;;;;;10.43;100.00;99360.47;5112777;28;20199;-53
2023/03/23 01:12:30;;;;;;;35.10;22.47;;;;;;;10.39;100.00;99364.06;5112953;28;20201;-52
2023/03/23 01:18:10;;;;;;;38.27;22.67;;;;;;;10.24;100.00;99367.97;5110252;28;20230;-55
2023/03/23 01:27:18;;;;;;;33.57;20.97;;;;;;;10.27;100.00;99362.69;5111389;28;20195;-56
2023/03/23 01:36:28;;;;;;;34.83;19.53;;;;;;;10.02;100.00;99372.91;5110974;28;20214;-52
2023/03/23 01:39:33;;;;;;;33.27;19.43;;;;;;;9.99;100.00;99370.41;5112263;28;20622;-57
2023/03/23 01:42:24;;;;;;;33.00;19.07;;;;;;;10.05;100.00;99370.22;5111985;28;20222;-55
2023/03/23 01:45:42;;;;;;;28.83;18.00;;;;;;;9.98;100.00;99360.91;5111693;28;20666;-57
2023/03/23 01:57:35;;;;;;;28.17;19.50;;;;;;;10.09;100.00;99352.81;5109572;28;20195;-56
2023/03/23 02:00:32;;;;;;;30.57;18.80;;;;;;;10.19;100.00;99365.50;5111148;28;20226;-52
2023/03/23 02:03:19;;;;;;;33.73;19.83;;;;;;;10.18;100.00;99366.41;5111345;28;20697;-52
2023/03/23 02:09:24;;;;;;;28.23;18.80;;;;;;;10.00;100.00;99364.31;5110626;28;20244;-55
2023/03/23 02:12:22;;;;;;;34.63;19.13;;;;;;;9.87;100.00;99369.91;5111840;28;20226;-56
2023/03/23 02:15:09;;;;;;;31.53;19.50;;;;;;;9.81;100.00;99368.34;5109585;28;20682;-52
2023/03/23 02:18:26;;;;;;;32.07;20.50;;;;;;;9.86;100.00;99375.97;5111661;28;20199;-53
2023/03/23 02:25:22;;;;;;;32.23;20.33;;;;;;;9.91;100.00;99376.72;5111003;28;20751;-52
2023/03/23 02:32:06;;;;;;;30.03;18.80;;;;;;;9.96;100.00;99361.84;5110030;28;20581;-55
2023/03/23 02:41:33;;;;;;;36.43;20.37;;;;;;;9.78;100.00;99368.41;5109757;28;20230;-52
2023/03/23 02:44:31;;;;;;;37.20;21.57;;;;;;;9.76;100.00;99352.91;5110146;28;20194;-52
2023/03/23 02:50:50;;;;;;;36.27;22.77;;;;;;;9.86;100.00;99376.81;5109015;28;20707;-51
2023/03/23 02:53:45;;;;;;;38.20;22.83;;;;;;;9.82;100.00;99375.19;5110167;28;20194;-56
2023/03/23 02:57:00;;;;;;;37.80;21.57;;;;;;;9.80;100.00;99374.41;5110815;28;20199;-56
2023/03/23 02:59:54;;;;;;;37.60;23.63;;;;;;;9.76;100.00;99380.56;5110332;28;20662;-56
2023/03/23 03:02:47;;;;;;;39.27;22.87;;;;;;;9.70;100.00;99389.38;5109547;28;20253;-56
2023/03/23 03:05:51;;;;;;;38.57;22.47;;;;;;;9.61;100.00;99388.75;5107693;28;20214;-52
2023/03/23 03:15:05;;;;;;;42.80;23.93;;;;;;;9.66;100.00;99390.34;5109370;28;20690;-53
2023/03/23 03:18:05;;;;;;;40.63;23.47;;;;;;;9.66;100.00;99389.50;5110554;28;20286;-53
2023/03/23 03:21:09;;;;;;;37.73;23.13;;;;;;;9.64;100.00;99391.25;5110486;28;20198;-52
2023/03/23 03:24:10;;;;;;;39.10;22.17;;;;;;;9.42;100.00;99391.84;5110449;28;20190;-56
2023/03/23 03:27:03;;;;;;;40.23;21.03;;;;;;;9.51;100.00;99403.69;5110366;28;20285;-56
2023/03/23 03:30:10;;;;;;;32.80;21.10;;;;;;;9.60;100.00;99402.59;5109804;28;20282;-56
2023/03/23 03:33:15;;;;;;;35.27;20.80;;;;;;;9.54;100.00;99407.94;5110200;28;20504;-56
2023/03/23 03:36:09;;;;;;;39.40;21.23;;;;;;;9.38;100.00;99403.16;5110215;28;20692;-56
2023/03/23 03:39:20;;;;;;;39.33;22.93;;;;;;;9.33;100.00;99415.38;5110531;28;20201;-56
2023/03/23 03:42:10;;;;;;;36.40;21.77;;;;;;;9.27;100.00;99412.94;5110482;28;20603;-57
2023/03/23 03:44:54;;;;;;;37.33;20.73;;;;;;;9.36;100.00;99417.91;5109362;28;20286;-55
2023/03/23 03:48:08;;;;;;;38.13;21.00;;;;;;;9.38;100.00;99405.75;5106953;28;20190;-56
2023/03/23 03:51:02;;;;;;;41.23;22.20;;;;;;;9.40;100.00;99410.88;5109766;28;20198;-53
2023/03/23 03:54:08;;;;;;;35.77;20.53;;;;;;;9.35;100.00;99408.44;5109136;28;20276;-53
2023/03/23 03:57:08;;;;;;;37.93;21.60;;;;;;;9.26;100.00;99408.66;5109801;28;20403;-53
2023/03/23 04:00:13;;;;;;;32.23;19.93;;;;;;;9.24;100.00;99410.44;5109318;28;20598;-52
2023/03/23 04:03:04;;;;;;;28.17;19.47;;;;;;;9.22;100.00;99407.03;5109969;28;20759;-52
2023/03/23 04:05:57;;;;;;;31.60;20.07;;;;;;;9.07;100.00;99418.63;5109900;28;20294;-51
2023/03/23 04:08:33;;;;;;;33.97;19.43;;;;;;;9.07;100.00;99415.19;5109857;28;20191;-52
2023/03/23 04:11:06;;;;;;;36.43;20.37;;;;;;;8.95;100.00;99412.88;5109224;28;20739;-55
2023/03/23 04:13:44;;;;;;;30.33;19.17;;;;;;;8.94;100.00;99411.19;5109968;28;20202;-56
2023/03/23 04:16:16;;;;;;;38.83;21.37;;;;;;;9.00;100.00;99422.25;5108992;28;20621;-55
2023/03/23 04:18:59;;;;;;;35.67;19.70;;;;;;;9.14;100.00;99413.31;5109663;28;20199;-59
2023/03/23 04:21:50;;;;;;;31.43;20.50;;;;;;;9.09;100.00;99410.81;5109743;28;20611;-56
2023/03/23 04:24:33;;;;;;;36.50;20.63;;;;;;;9.07;100.00;99413.44;5109724;28;20190;-56
2023/03/23 04:27:06;;;;;;;33.20;19.83;;;;;;;9.00;100.00;99421.41;5109618;28;20619;-56
2023/03/23 04:29:49;;;;;;;33.17;20.90;;;;;;;8.96;100.00;99417.16;5108929;28;20195;-56
2023/03/23 04:32:20;;;;;;;33.93;19.07;;;;;;;8.94;100.00;99422.38;5105026;28;20202;-55
2023/03/23 04:34:55;;;;;;;36.23;20.97;;;;;;;9.06;100.00;99423.81;5107537;28;20218;-53
2023/03/23 04:37:33;;;;;;;33.30;20.73;;;;;;;8.98;100.00;99418.84;5104776;28;20218;-51
2023/03/23 04:40:14;;;;;;;32.53;20.43;;;;;;;9.01;100.00;99415.34;5105560;28;20696;-51
2023/03/23 04:42:51;;;;;;;33.70;20.10;;;;;;;9.00;100.00;99419.66;5107644;28;20720;-50
2023/03/23 04:45:41;;;;;;;36.13;20.90;;;;;;;9.09;100.00;99429.78;5106962;28;20294;-51
2023/03/23 04:48:31;;;;;;;35.57;20.27;;;;;;;9.06;100.00;99427.28;5107629;28;20258;-52
2023/03/23 04:51:09;;;;;;;33.03;19.37;;;;;;;9.02;100.00;99435.16;5107407;28;20218;-52
2023/03/23 04:53:50;;;;;;;33.80;20.07;;;;;;;8.97;100.00;99416.28;5106001;28;20309;-53
2023/03/23 04:56:34;;;;;;;31.13;20.00;;;;;;;9.20;100.00;99434.72;5104257;28;20702;-55
2023/03/23 04:59:18;;;;;;;36.70;21.57;;;;;;;9.37;100.00;99436.88;5104782;28;20225;-53
2023/03/23 05:02:01;;;;;;;37.83;21.10;;;;;;;9.44;100.00;99431.50;5091127;28;20254;-52
2023/03/23 05:04:31;;;;;;;34.93;21.60;;;;;;;9.56;100.00;99432.09;5104965;28;20218;-53
2023/03/23 05:07:18;;;;;;;34.77;21.50;;;;;;;9.54;100.00;99433.84;5110173;28;20218;-53
2023/03/23 05:10:10;;;;;;;34.93;21.70;;;;;;;9.63;100.00;99431.88;5109558;28;20225;-53
2023/03/23 05:16:04;;;;;;;35.90;21.77;;;;;;;9.82;100.00;99433.06;5110019;28;20244;-56
2023/03/23 05:18:41;;;;;;;38.43;23.50;;;;;;;9.94;100.00;99438.81;5112084;28;20223;-56
2023/03/23 05:21:20;;;;;;;36.47;22.97;;;;;;;9.86;100.00;99438.19;5109336;28;20241;-53
2023/03/23 05:23:54;;;;;;;37.07;22.23;;;;;;;10.02;100.00;99444.66;5111399;28;20234;-54
2023/03/23 05:26:32;;;;;;;39.87;24.47;;;;;;;9.94;100.00;99439.66;5110207;28;20712;-56
2023/03/23 05:29:06;;;;;;;35.00;22.70;;;;;;;9.89;100.00;99454.50;5108699;28;20217;-52
2023/03/23 05:31:39;;;;;;;33.63;22.00;;;;;;;9.98;100.00;99456.84;5108850;28;20695;-52
2023/03/23 05:34:17;;;;;;;30.67;19.93;;;;;;;9.94;100.00;99457.81;5110151;28;20257;-53
2023/03/23 05:37:06;;;;;;;33.57;22.00;;;;;;;9.97;100.00;99454.31;5110850;28;20705;-56
2023/03/23 05:39:53;;;;;;;37.57;21.30;;;;;;;9.99;100.00;99458.56;5108523;28;20218;-56
2023/03/23 05:45:26;;;;;;;35.37;21.83;;;;;;;10.01;100.00;99472.34;5102704;28;20198;-56
2023/03/23 05:47:56;;;;;;;38.00;23.33;;;;;;;10.03;100.00;99482.66;5109578;28;20191;-56
2023/03/23 05:51:08;;;;;;;42.17;24.30;;;;;;;9.96;100.00;99483.72;5112897;28;20194;-56
2023/03/23 05:54:04;;;;;;;45.07;23.47;;;;;;;10.00;100.00;99472.38;5112320;28;20194;-53
2023/03/23 05:57:16;;;;;;;43.03;25.07;;;;;;;10.03;100.00;99486.13;5112106;28;20194;-56
2023/03/23 05:59:44;;;;;;;42.83;24.17;;;;;;;9.93;100.00;99479.44;5108979;28;20285;-51
2023/03/23 06:02:13;;;;;;;37.87;22.97;;;;;;;9.97;100.00;99483.66;5111562;28;20233;-55
2023/03/23 06:04:46;;;;;;;39.80;24.10;;;;;;;10.00;100.00;99498.31;5110625;28;20199;-52
2023/03/23 06:07:18;;;;;;;44.07;23.67;;;;;;;10.11;100.00;99494.53;5111625;28;20256;-53
2023/03/23 06:09:52;;;;;;;40.73;23.57;;;;;;;10.12;100.00;99503.16;5111332;28;20191;-55
2023/03/23 06:12:43;;;;;;;39.00;24.73;;;;;;;10.06;100.00;99501.56;5109721;28;20277;-54
2023/03/23 06:15:31;;;;;;;43.63;25.93;;;;;;;10.11;100.00;99489.34;5110590;28;20228;-56
2023/03/23 06:18:07;;;;;;;38.57;22.90;;;;;;;10.13;100.00;99502.28;5110895;28;20202;-53
2023/03/23 06:20:40;;;;;;;39.87;23.57;;;;;;;10.32;100.00;99502.63;5109418;28;20198;-51
2023/03/23 06:23:26;;;;;;;37.07;22.40;;;;;;;10.49;100.00;99508.22;5090367;28;20223;-53
2023/03/23 06:26:17;;;;;;;36.10;20.17;;;;;;;10.55;100.00;99501.09;5106715;28;20632;-53
2023/03/23 06:28:53;;;;;;;30.70;20.20;;;;;;;10.53;100.00;99499.44;5109874;28;20199;-52
2023/03/23 06:34:30;;;;;;;34.37;20.83;;;;;;;10.78;100.00;99504.75;5108268;28;20234;-53
2023/03/23 06:37:46;;;;;;;37.10;20.77;;;;;;;10.75;100.00;99510.03;5110709;28;20289;-53
2023/03/23 06:40:46;;;;;;;34.20;20.83;;;;;;;10.87;100.00;99509.69;5109036;28;20597;-54
2023/03/23 06:43:17;;;;;;;35.87;21.87;;;;;;;10.94;100.00;99520.75;5111108;28;20226;-53
2023/03/23 06:46:23;;;;;;;35.60;22.17;;;;;;;11.11;100.00;99521.06;5109586;28;20284;-52
2023/03/23 06:58:35;;;;;;;35.77;20.87;;;;;;;14.29;100.00;99538.72;5109291;28;20198;-53
2023/03/23 07:05:11;;;;;;;34.67;19.90;;;;;;;16.29;100.00;99548.41;5106140;28;20299;-55
2023/03/23 07:07:46;;;;;;;31.90;20.47;;;;;;;16.24;99.97;99550.44;5110692;28;20273;-56
2023/03/23 07:10:18;;;;;;;29.53;19.23;;;;;;;15.83;100.00;99550.72;5108025;28;20575;-56
2023/03/23 07:13:00;;;;;;;30.03;19.23;;;;;;;15.36;100.00;99542.53;5109350;28;20254;-56
2023/03/23 07:18:57;;;;;;;46.63;22.03;;;;;;;15.61;100.00;99544.84;5103896;28;20301;-56
2023/03/23 07:25:24;;;;;;;34.37;23.77;;;;;;;19.57;86.13;99558.13;5107156;28;20230;-53
2023/03/23 07:31:26;;;;;;;32.78;21.75;;;;;;;23.33;66.81;99575.63;5088148;28;20226;-53
2023/03/23 07:34:27;;;;;;;30.98;21.25;;;;;;;24.78;58.93;99569.66;5089231;28;20215;-53
2023/03/23 07:37:34;;;;;;;34.40;22.15;;;;;;;26.74;51.77;99573.09;5088826;28;20214;-53
2023/03/23 07:40:28;;;;;;;31.25;20.48;;;;;;;27.59;47.87;99568.47;5087921;28;20276;-54
2023/03/23 07:43:25;;;;;;;28.33;18.85;;;;;;;28.59;44.54;99574.34;5088963;28;20625;-53
2023/03/23 07:46:27;;;;;;;36.00;20.95;;;;;;;29.13;41.41;99580.31;5089286;28;20258;-53
2023/03/23 07:49:05;;;;;;;26.60;19.88;;;;;;;30.88;36.86;99580.81;5088026;28;20247;-53
2023/03/23 07:51:58;;;;;;;21.05;17.63;;;;;;;31.45;34.94;99580.59;5088372;28;20226;-54
2023/03/23 07:54:51;;;;;;;25.50;16.55;;;;;;;32.20;32.43;99575.41;5090260;28;20251;-53
2023/03/23 08:01:23;;;;;;;20.98;15.82;;;;;;;33.24;30.48;99570.97;5098798;28;20258;-53
2023/03/23 08:04:22;;;;;;;23.48;17.60;;;;;;;32.69;31.34;99578.47;5109174;28;20709;-52
2023/03/23 08:07:21;;;;;;;21.17;18.17;;;;;;;29.90;34.89;99571.19;5108985;28;20214;-53
2023/03/23 08:10:20;;;;;;;21.65;16.13;;;;;;;27.01;39.44;99564.28;5089007;28;20273;-53
2023/03/23 08:13:32;;;;;;;20.67;14.43;;;;;;;24.65;43.02;99557.59;5089002;28;20276;-55
2023/03/23 08:16:03;;;;;;;15.82;14.10;;;;;;;23.46;46.46;99562.25;5087525;28;20718;-53
2023/03/23 08:18:52;;;;;;;17.38;14.15;;;;;;;21.95;48.85;99555.50;5093037;28;20214;-55
2023/03/23 08:21:32;;;;;;;16.95;12.90;;;;;;;21.36;50.84;99551.97;5107385;28;20220;-55
2023/03/23 08:24:09;;;;;;;14.27;12.38;;;;;;;20.78;52.43;99544.69;5104634;28;20240;-52
2023/03/23 08:27:08;;;;;;;13.45;12.15;;;;;;;20.48;54.08;99545.03;5108949;28;20260;-53
2023/03/23 08:30:24;;;;;;;14.98;12.48;;;;;;;20.13;55.15;99544.78;5109120;28;20223;-55
2023/03/23 08:32:58;;;;;;;16.55;12.10;;;;;;;20.29;54.19;99548.91;5108838;28;20254;-52
2023/03/23 08:35:45;;;;;;;21.20;13.63;;;;;;;20.05;55.24;99536.56;5105947;28;20210;-55
2023/03/23 08:38:30;;;;;;;16.67;13.25;;;;;;;20.12;55.29;99530.75;5107986;28;20215;-55
2023/03/23 08:41:10;;;;;;;13.15;11.95;;;;;;;19.49;55.83;99526.19;5103315;28;20241;-55
2023/03/23 08:44:01;;;;;;;14.13;12.82;;;;;;;19.66;55.97;99537.41;5108580;28;20317;-52
2023/03/23 08:46:58;;;;;;;15.80;12.32;;;;;;;19.39;54.89;99534.75;5109848;28;20215;-55
2023/03/23 08:49:42;;;;;;;13.52;12.23;;;;;;;19.08;56.88;99535.84;5091984;28;20219;-54
2023/03/23 08:52:21;;;;;;;15.30;13.70;;;;;;;18.74;58.60;99531.84;5088951;28;20352;-54
2023/03/23 08:54:50;;;;;;;15.57;13.10;;;;;;;18.60;58.78;99542.41;5105491;28;20222;-55
2023/03/23 08:58:02;;;;;;;16.08;13.02;;;;;;;18.47;58.55;99542.28;5112201;28;20222;-52
2023/03/23 09:00:44;;;;;;;13.90;12.15;;;;;;;18.51;58.70;99534.09;5108832;28;20245;-53
2023/03/23 09:03:51;;;;;;;15.93;12.45;;;;;;;18.48;58.23;99536.94;5111076;28;20250;-52
2023/03/23 09:06:46;;;;;;;13.18;11.80;;;;;;;18.72;56.70;99539.03;5108462;28;20213;-54
2023/03/23 09:09:39;;;;;;;18.35;11.90;;;;;;;18.66;57.17;99539.38;5111884;28;20218;-53
2023/03/23 09:15:23;;;;;;;18.52;13.00;;;;;;;19.07;56.16;99521.03;5109254;28;20226;-54
2023/03/23 09:18:03;;;;;;;14.88;11.07;;;;;;;19.12;55.53;99537.38;5112399;28;20230;-55
2023/03/23 09:21:09;;;;;;;14.40;12.05;;;;;;;19.20;54.42;99537.72;5111711;28;20229;-52
2023/03/23 09:24:14;;;;;;;14.02;11.48;;;;;;;19.15;54.71;99540.66;5112411;28;20320;-54
2023/03/23 09:27:00;;;;;;;14.35;10.88;;;;;;;18.82;55.75;99535.72;5091797;28;20276;-54
2023/03/23 09:29:48;;;;;;;13.10;11.70;;;;;;;18.34;56.51;99520.28;5091512;28;20346;-54
2023/03/23 09:32:34;;;;;;;13.77;12.23;;;;;;;18.25;56.81;99528.72;5090706;28;20255;-55
2023/03/23 09:35:32;;;;;;;13.68;10.85;;;;;;;18.08;55.85;99522.69;5091026;28;20222;-52
2023/03/23 09:38:19;;;;;;;15.18;11.32;;;;;;;18.11;57.16;99519.03;5091220;28;20611;-55
2023/03/23 09:41:10;;;;;;;13.10;11.15;;;;;;;18.08;58.52;99512.19;5091356;28;20225;-52
2023/03/23 09:44:17;;;;;;;12.32;10.35;;;;;;;18.13;56.69;99525.06;5091496;28;20231;-54
2023/03/23 09:47:22;;;;;;;9.95;9.10;;;;;;;18.26;56.38;99522.53;5091280;28;20606;-54
2023/03/23 09:50:26;;;;;;;12.40;9.68;;;;;;;18.44;55.55;99516.16;5090214;28;20253;-53
2023/03/23 09:53:28;;;;;;;10.38;9.38;;;;;;;18.61;52.83;99512.56;5091249;28;20221;-53
2023/03/23 09:56:27;;;;;;;9.68;8.88;;;;;;;18.78;52.73;99520.22;5105147;28;20226;-52
2023/03/23 10:05:53;;;;;;;13.50;12.20;;;;;;;18.75;53.12;99509.88;5106755;28;20246;-54
2023/03/23 10:08:55;;;;;;;12.13;10.57;;;;;;;18.41;53.33;99501.41;5110816;28;20218;-54
2023/03/23 10:12:03;;;;;;;17.42;11.73;;;;;;;18.30;54.76;99498.59;5111093;28;20754;-53
2023/03/23 10:15:23;;;;;;;11.35;10.20;;;;;;;18.23;54.67;99505.19;5111094;28;20249;-55
2023/03/23 10:21:29;;;;;;;10.68;9.68;;;;;;;18.46;53.03;99496.75;5109528;28;20249;-53
2023/03/23 10:24:24;;;;;;;9.30;8.30;;;;;;;18.63;52.29;99502.75;5111053;28;20230;-53
2023/03/23 10:27:40;;;;;;;9.50;8.02;;;;;;;18.66;51.43;99498.16;5090482;28;20313;-55
2023/03/23 10:36:44;;;;;;;8.00;6.50;;;;;;;19.08;49.33;99493.75;5088606;28;20315;-53
2023/03/23 10:39:34;;;;;;;8.57;6.82;;;;;;;19.24;48.77;99502.38;5090258;28;20218;-54
2023/03/23 10:42:17;;;;;;;10.65;9.60;;;;;;;19.37;50.88;99492.75;5089386;28;20226;-54
2023/03/23 10:45:22;;;;;;;11.75;9.80;;;;;;;19.29;50.64;99479.25;5092482;28;20377;-52
2023/03/23 10:48:14;;;;;;;11.15;8.13;;;;;;;19.40;49.85;99484.66;5109472;28;20697;-53
2023/03/23 10:51:09;;;;;;;11.27;8.00;;;;;;;19.43;49.96;99487.06;5103691;28;20285;-52
2023/03/23 10:57:06;;;;;;;6.57;6.10;;;;;;;19.77;46.91;99480.44;5089795;28;20656;-53
2023/03/23 11:00:26;;;;;;;5.07;4.63;;;;;;;19.71;45.46;99482.66;5090799;28;20600;-52
2023/03/23 11:03:48;;;;;;;6.20;5.70;;;;;;;19.66;46.39;99479.47;5089882;28;20598;-55
2023/03/23 11:10:08;;;;;;;6.53;5.80;;;;;;;19.26;46.96;99484.69;5087264;28;20643;-54
2023/03/23 11:12:39;;;;;;;9.07;7.88;;;;;;;19.21;47.54;99473.63;5093436;28;20198;-56
2023/03/23 11:15:37;;;;;;;7.07;6.53;;;;;;;19.15;47.20;99474.03;5107753;28;20190;-56
2023/03/23 11:18:18;;;;;;;6.82;6.15;;;;;;;19.16;48.08;99467.81;5109975;28;20824;-56
2023/03/23 11:20:56;;;;;;;10.30;6.90;;;;;;;19.18;48.05;99473.84;5110054;28;20714;-55
2023/03/23 11:23:33;;;;;;;6.03;5.53;;;;;;;19.04;48.35;99468.63;5108828;28;20198;-55
2023/03/23 11:26:25;;;;;;;6.00;5.50;;;;;;;18.89;49.00;99472.22;5105076;28;20191;-56
2023/03/23 11:29:11;;;;;;;6.05;5.65;;;;;;;18.72;50.02;99465.41;5106673;28;20202;-55
2023/03/23 11:31:52;;;;;;;6.47;5.95;;;;;;;18.81;49.99;99468.28;5107625;28;20273;-56
2023/03/23 11:34:28;;;;;;;6.63;5.95;;;;;;;19.00;50.24;99460.06;5106823;28;20190;-56
2023/03/23 11:37:03;;;;;;;6.80;5.95;;;;;;;19.17;49.97;99464.25;5107105;28;20590;-55
2023/03/23 11:39:48;;;;;;;5.72;5.10;;;;;;;19.23;48.80;99455.94;5106422;28;20202;-56
2023/03/23 11:42:41;;;;;;;6.35;5.90;;;;;;;19.12;50.38;99459.28;5106401;28;20666;-55
2023/03/23 11:45:28;;;;;;;10.10;8.50;;;;;;;19.01;52.75;99450.38;5108442;28;20222;-54
2023/03/23 11:48:30;;;;;;;7.60;6.93;;;;;;;18.72;54.11;99450.47;5106691;28;20194;-51
2023/03/23 11:51:09;;;;;;;9.68;8.52;;;;;;;18.52;55.90;99446.41;5107092;28;20198;-52
2023/03/23 11:53:52;;;;;;;10.77;9.77;;;;;;;18.31;58.17;99450.38;5106733;28;20206;-52
2023/03/23 11:56:31;;;;;;;10.13;9.07;;;;;;;18.07;59.54;99434.31;5107038;28;20226;-52
2023/03/23 11:59:21;;;;;;;10.93;9.85;;;;;;;18.02;60.21;99446.91;5105098;28;20187;-52
2023/03/23 12:02:05;;;;;;;11.40;9.27;;;;;;;18.27;59.23;99437.53;5105147;28;20736;-53
2023/03/23 12:05:14;;;;;;;9.85;8.95;;;;;;;18.26;58.99;99446.34;5106413;28;20654;-54
2023/03/23 12:08:03;;;;;;;9.65;8.70;;;;;;;18.16;60.03;99442.59;5107384;28;20194;-52
2023/03/23 12:10:51;;;;;;;12.30;9.38;;;;;;;18.26;59.89;99436.69;5105965;28;20509;-52
2023/03/23 12:13:52;;;;;;;10.45;9.32;;;;;;;18.19;59.64;99437.13;5106587;28;20240;-53
2023/03/23 12:16:42;;;;;;;23.60;11.57;;;;;;;17.91;60.79;99425.69;5110377;28;20197;-53
2023/03/23 12:19:41;;;;;;;10.05;9.15;;;;;;;17.59;61.48;99438.09;5112352;28;20198;-52
2023/03/23 12:22:38;;;;;;;12.32;8.98;;;;;;;17.45;62.23;99431.94;5111941;28;20646;-50
2023/03/23 12:25:44;;;;;;;12.40;8.52;;;;;;;17.36;62.28;99428.94;5111233;28;20297;-52
2023/03/23 12:28:36;;;;;;;9.80;8.77;;;;;;;17.48;61.08;99432.63;5108258;28;20552;-52
2023/03/23 12:31:16;;;;;;;8.38;7.47;;;;;;;17.40;60.55;99430.41;5111848;28;20201;-52
2023/03/23 12:34:09;;;;;;;8.75;7.95;;;;;;;17.36;61.19;99421.06;5111466;28;20198;-52
2023/03/23 12:37:19;;;;;;;8.50;7.78;;;;;;;17.30;61.61;99436.28;5110428;28;20216;-53
2023/03/23 12:40:20;;;;;;;8.85;7.97;;;;;;;17.32;61.77;99430.03;5111943;28;20580;-52
2023/03/23 12:43:16;;;;;;;7.72;7.05;;;;;;;17.27;61.47;99426.81;5111440;28;20198;-52
2023/03/23 12:46:14;;;;;;;7.85;6.97;;;;;;;17.55;60.10;99433.09;5111653;28;20585;-52
2023/03/23 12:49:03;;;;;;;7.43;6.82;;;;;;;17.75;59.59;99438.03;5111399;28;20194;-53
2023/03/23 12:52:17;;;;;;;7.88;7.28;;;;;;;17.75;59.03;99431.00;5109110;28;20197;-53
2023/03/23 12:55:07;;;;;;;7.05;6.13;;;;;;;17.69;59.44;99426.13;5111685;28;20195;-53
2023/03/23 12:58:17;;;;;;;6.68;6.18;;;;;;;17.65;59.67;99429.03;5110520;28;20263;-56
2023/03/23 13:01:36;;;;;;;6.63;5.90;;;;;;;17.66;59.11;99420.22;5112078;28;20271;-55
2023/03/23 13:04:37;;;;;;;6.13;5.18;;;;;;;17.61;58.96;99422.22;5112672;28;20211;-56
2023/03/23 13:10:49;;;;;;;6.03;5.43;;;;;;;17.73;59.00;99417.13;5111017;28;20199;-55
2023/03/23 13:14:20;;;;;;;5.53;5.13;;;;;;;17.76;58.11;99421.34;5112712;28;20194;-55
2023/03/23 13:26:54;;;;;;;4.65;4.25;;;;;;;17.64;58.63;99414.22;5110419;28;20191;-55
2023/03/23 13:33:04;;;;;;;4.43;4.10;;;;;;;17.57;58.53;99418.94;5109921;28;20198;-55
2023/03/23 13:36:08;;;;;;;5.30;4.90;;;;;;;17.40;58.38;99413.84;5112679;28;20688;-54
2023/03/23 13:39:22;;;;;;;4.45;4.05;;;;;;;17.48;58.39;99416.03;5112524;28;20285;-54
2023/03/23 13:46:07;;;;;;;4.88;4.53;;;;;;;17.59;58.57;99422.34;5109752;28;20301;-55
2023/03/23 13:52:12;;;;;;;5.25;4.85;;;;;;;17.43;58.27;99414.50;5111826;28;20206;-55
2023/03/23 13:58:39;;;;;;;5.10;4.70;;;;;;;17.35;59.99;99416.75;5109748;28;20295;-54
2023/03/23 14:01:46;;;;;;;5.88;5.47;;;;;;;17.22;60.17;99425.41;5093825;28;20242;-54
2023/03/23 14:04:24;;;;;;;7.47;4.68;;;;;;;17.11;59.96;99426.00;5090044;28;20317;-54
2023/03/23 14:07:33;;;;;;;5.13;4.67;;;;;;;17.14;59.87;99433.72;5090671;28;20214;-52
2023/03/23 14:10:33;;;;;;;5.63;5.07;;;;;;;16.90;61.56;99429.84;5095152;28;20705;-53
2023/03/23 14:13:38;;;;;;;4.90;4.60;;;;;;;16.87;61.31;99422.16;5111343;28;20218;-53
2023/03/23 14:19:48;;;;;;;4.57;4.27;;;;;;;16.73;61.56;99422.06;5108373;28;20222;-51
2023/03/23 14:23:04;;;;;;;4.83;4.50;;;;;;;16.68;61.12;99425.81;5109283;28;20234;-55
2023/03/23 14:26:14;;;;;;;4.90;4.50;;;;;;;16.61;60.29;99418.31;5111048;28;20226;-53
2023/03/23 14:29:26;;;;;;;4.70;4.40;;;;;;;16.59;61.01;99420.19;5109346;28;20199;-53
2023/03/23 14:32:17;;;;;;;8.37;5.37;;;;;;;16.63;60.83;99422.56;5109198;28;20584;-53
2023/03/23 14:35:03;;;;;;;6.60;5.10;;;;;;;16.51;61.75;99404.88;5111245;28;20195;-52
2023/03/23 14:40:39;;;;;;;5.80;5.07;;;;;;;16.54;61.50;99415.19;5102972;28;20206;-52
2023/03/23 14:43:28;;;;;;;5.77;5.27;;;;;;;16.52;61.68;99424.06;5107953;28;20305;-52
2023/03/23 14:46:15;;;;;;;7.30;6.30;;;;;;;16.52;62.56;99427.53;5104207;28;20226;-51
2023/03/23 14:49:06;;;;;;;6.10;5.60;;;;;;;16.62;61.77;99420.88;5107256;28;20198;-52
2023/03/23 14:51:51;;;;;;;4.77;4.37;;;;;;;16.56;61.29;99417.72;5108363;28;20222;-51
2023/03/23 14:57:40;;;;;;;5.70;5.20;;;;;;;16.56;60.49;99413.34;5099696;28;20707;-51
2023/03/23 15:00:29;;;;;;;5.67;5.17;;;;;;;16.52;60.21;99403.94;5102971;28;20277;-51
2023/03/23 15:03:26;;;;;;;4.50;4.13;;;;;;;16.56;59.54;99408.09;5102414;28;20282;-51
2023/03/23 15:06:23;;;;;;;5.80;5.30;;;;;;;16.58;59.22;99406.25;5088948;28;20233;-53
2023/03/23 15:09:05;;;;;;;5.60;4.73;;;;;;;16.49;59.31;99404.09;5108607;28;20280;-53
2023/03/23 15:11:45;;;;;;;4.97;4.57;;;;;;;16.50;59.28;99405.81;5100360;28;20230;-53
2023/03/23 15:14:54;;;;;;;5.10;4.70;;;;;;;16.43;59.08;99411.47;5109816;28;20289;-52
2023/03/23 15:17:35;;;;;;;5.73;5.10;;;;;;;16.38;59.70;99403.00;5097365;28;20238;-50
2023/03/23 15:20:25;;;;;;;5.53;5.07;;;;;;;16.25;60.58;99411.50;5088447;28;20314;-56
2023/03/23 15:22:59;;;;;;;5.20;4.77;;;;;;;16.15;60.89;99397.22;5089548;28;20222;-55
2023/03/23 15:25:35;;;;;;;5.30;4.90;;;;;;;16.19;61.16;99408.38;5095338;28;20233;-55
2023/03/23 15:28:38;;;;;;;6.93;5.30;;;;;;;16.12;60.92;99399.19;5109142;28;20191;-54
2023/03/23 15:31:38;;;;;;;5.60;5.13;;;;;;;16.00;61.47;99405.06;5108540;28;20195;-54
2023/03/23 15:44:49;;;;;;;8.23;5.33;;;;;;;15.63;65.97;99413.97;5107294;28;20273;-55
2023/03/23 15:48:05;;;;;;;5.40;4.90;;;;;;;15.51;64.95;99415.41;5109020;28;20198;-55
2023/03/23 15:54:07;;;;;;;6.00;5.00;;;;;;;15.35;69.94;99401.41;5108113;28;20285;-54
2023/03/23 15:57:19;;;;;;;5.63;5.20;;;;;;;15.38;69.26;99419.53;5109929;28;20201;-54
2023/03/23 16:00:21;;;;;;;5.37;4.87;;;;;;;15.37;69.64;99423.94;5109550;28;20199;-55
2023/03/23 16:09:41;;;;;;;6.30;5.80;;;;;;;15.12;73.88;99447.00;5107295;28;20194;-55
2023/03/23 16:12:52;;;;;;;6.20;5.57;;;;;;;15.06;75.06;99437.66;5108627;28;20198;-54
2023/03/23 16:15:57;;;;;;;6.63;6.03;;;;;;;14.89;80.72;99445.47;5107836;28;20195;-54
2023/03/23 16:19:06;;;;;;;7.53;6.73;;;;;;;14.72;84.98;99440.19;5108117;28;20199;-54
2023/03/23 16:22:00;;;;;;;11.23;7.67;;;;;;;14.58;86.45;99437.38;5108899;28;20682;-55
2023/03/23 16:24:33;;;;;;;9.77;6.83;;;;;;;14.49;87.16;99444.72;5099838;28;20210;-54
2023/03/23 16:27:07;;;;;;;10.67;8.27;;;;;;;14.37;88.02;99444.38;5109103;28;20227;-55